sensor_id;sensor_type;location;lat;lon;timestamp;P1;durP1;ratioP1;P2;durP2;ratioP2
9799;SDS011;4939;52.00085300;4.17406100;2024-02-16T00:00:23;7.10;;;3.17;;
9799;SDS011;4939;52.00085300;4.17406100;2024-02-16T00:02:49;6.80;;;3.00;;
9799;SDS011;4939;52.00085300;4.17406100;2024-02-16T00:05:15;5.13;;;2.70;;
9799;SDS011;4939;52.00085300;4.17406100;2024-02-16T00:07:41;5.82;;;2.90;;
9799;SDS011;4939;52.00085300;4.17406100;2024-02-16T00:10:08;5.45;;;2.90;;
9799;SDS011;4939;52.00085300;4.17406100;2024-02-16T00:12:34;5.28;;;2.90;;
9799;SDS011;4939;52.00085300;4.17406100;2024-02-16T00:15:01;6.43;;;3.25;;
9799;SDS011;4939;52.00085300;4.17406100;2024-02-16T00:17:27;5.55;;;3.22;;
9799;SDS011;4939;52.00085300;4.17406100;2024-02-16T00:19:57;9.02;;;3.40;;
9799;SDS011;4939;52.00085300;4.17406100;2024-02-16T00:22:22;5.82;;;3.13;;
9799;SDS011;4939;52.00085300;4.17406100;2024-02-16T00:24:49;6.18;;;3.17;;
9799;SDS011;4939;52.00085300;4.17406100;2024-02-16T00:27:15;7.60;;;3.08;;
9799;SDS011;4939;52.00085300;4.17406100;2024-02-16T00:29:41;7.47;;;3.20;;
9799;SDS011;4939;52.00085300;4.17406100;2024-02-16T00:32:07;5.65;;;3.17;;
9799;SDS011;4939;52.00085300;4.17406100;2024-02-16T00:34:36;7.10;;;3.20;;
9799;SDS011;4939;52.00085300;4.17406100;2024-02-16T00:37:02;6.20;;;3.10;;
9799;SDS011;4939;52.00085300;4.17406100;2024-02-16T00:39:33;7.95;;;3.40;;
9799;SDS011;4939;52.00085300;4.17406100;2024-02-16T00:41:59;7.68;;;3.20;;
9799;SDS011;4939;52.00085300;4.17406100;2024-02-16T00:44:25;6.35;;;3.28;;
9799;SDS011;4939;52.00085300;4.17406100;2024-02-16T00:46:51;10.73;;;3.25;;
9799;SDS011;4939;52.00085300;4.17406100;2024-02-16T00:49:17;6.30;;;3.28;;
9799;SDS011;4939;52.00085300;4.17406100;2024-02-16T00:51:43;6.50;;;2.92;;
9799;SDS011;4939;52.00085300;4.17406100;2024-02-16T00:54:09;8.07;;;3.50;;
9799;SDS011;4939;52.00085300;4.17406100;2024-02-16T00:56:35;6.40;;;3.30;;
9799;SDS011;4939;52.00085300;4.17406100;2024-02-16T00:59:01;7.65;;;3.20;;
9799;SDS011;4939;52.00085300;4.17406100;2024-02-16T01:01:27;6.88;;;3.47;;
9799;SDS011;4939;52.00085300;4.17406100;2024-02-16T01:03:53;6.72;;;3.25;;
9799;SDS011;4939;52.00085300;4.17406100;2024-02-16T01:06:19;8.88;;;3.45;;
9799;SDS011;4939;52.00085300;4.17406100;2024-02-16T01:08:46;6.90;;;3.08;;
9799;SDS011;4939;52.00085300;4.17406100;2024-02-16T01:11:12;7.28;;;3.22;;
9799;SDS011;4939;52.00085300;4.17406100;2024-02-16T01:13:41;9.27;;;3.40;;
9799;SDS011;4939;52.00085300;4.17406100;2024-02-16T01:16:08;6.45;;;3.50;;
9799;SDS011;4939;52.00085300;4.17406100;2024-02-16T01:18:35;11.25;;;3.28;;
9799;SDS011;4939;52.00085300;4.17406100;2024-02-16T01:21:02;7.10;;;3.03;;
9799;SDS011;4939;52.00085300;4.17406100;2024-02-16T01:23:28;8.77;;;3.72;;
9799;SDS011;4939;52.00085300;4.17406100;2024-02-16T01:25:55;6.20;;;3.22;;
9799;SDS011;4939;52.00085300;4.17406100;2024-02-16T01:28:21;8.52;;;3.40;;
9799;SDS011;4939;52.00085300;4.17406100;2024-02-16T01:30:48;7.38;;;3.50;;
9799;SDS011;4939;52.00085300;4.17406100;2024-02-16T01:33:14;7.38;;;3.50;;
9799;SDS011;4939;52.00085300;4.17406100;2024-02-16T01:35:40;7.07;;;3.25;;
9799;SDS011;4939;52.00085300;4.17406100;2024-02-16T01:38:06;8.70;;;3.47;;
9799;SDS011;4939;52.00085300;4.17406100;2024-02-16T01:40:32;6.38;;;3.05;;
9799;SDS011;4939;52.00085300;4.17406100;2024-02-16T01:42:58;7.72;;;3.50;;
9799;SDS011;4939;52.00085300;4.17406100;2024-02-16T01:45:24;7.50;;;3.25;;
9799;SDS011;4939;52.00085300;4.17406100;2024-02-16T01:47:51;8.35;;;3.42;;
9799;SDS011;4939;52.00085300;4.17406100;2024-02-16T01:50:18;7.55;;;3.45;;
9799;SDS011;4939;52.00085300;4.17406100;2024-02-16T01:52:45;9.32;;;3.30;;
9799;SDS011;4939;52.00085300;4.17406100;2024-02-16T01:55:11;7.95;;;4.10;;
9799;SDS011;4939;52.00085300;4.17406100;2024-02-16T01:57:44;6.13;;;3.22;;
9799;SDS011;4939;52.00085300;4.17406100;2024-02-16T02:00:12;6.72;;;3.40;;
9799;SDS011;4939;52.00085300;4.17406100;2024-02-16T02:02:40;7.38;;;3.15;;
9799;SDS011;4939;52.00085300;4.17406100;2024-02-16T02:05:08;8.20;;;3.63;;
9799;SDS011;4939;52.00085300;4.17406100;2024-02-16T02:07:34;7.55;;;3.60;;
9799;SDS011;4939;52.00085300;4.17406100;2024-02-16T02:10:00;6.10;;;3.47;;
9799;SDS011;4939;52.00085300;4.17406100;2024-02-16T02:12:26;7.28;;;3.70;;
9799;SDS011;4939;52.00085300;4.17406100;2024-02-16T02:14:52;7.50;;;3.40;;
9799;SDS011;4939;52.00085300;4.17406100;2024-02-16T02:17:19;6.80;;;3.15;;
9799;SDS011;4939;52.00085300;4.17406100;2024-02-16T02:19:45;10.05;;;4.00;;
9799;SDS011;4939;52.00085300;4.17406100;2024-02-16T02:22:13;7.90;;;3.70;;
9799;SDS011;4939;52.00085300;4.17406100;2024-02-16T02:24:46;9.32;;;3.80;;
9799;SDS011;4939;52.00085300;4.17406100;2024-02-16T02:27:13;10.25;;;3.63;;
9799;SDS011;4939;52.00085300;4.17406100;2024-02-16T02:29:40;9.30;;;3.60;;
9799;SDS011;4939;52.00085300;4.17406100;2024-02-16T02:32:07;8.98;;;3.90;;
9799;SDS011;4939;52.00085300;4.17406100;2024-02-16T02:34:33;7.10;;;3.78;;
9799;SDS011;4939;52.00085300;4.17406100;2024-02-16T02:37:01;8.43;;;3.85;;
9799;SDS011;4939;52.00085300;4.17406100;2024-02-16T02:39:29;9.27;;;3.63;;
9799;SDS011;4939;52.00085300;4.17406100;2024-02-16T02:41:55;10.07;;;4.10;;
9799;SDS011;4939;52.00085300;4.17406100;2024-02-16T02:44:23;7.30;;;3.28;;
9799;SDS011;4939;52.00085300;4.17406100;2024-02-16T02:46:49;8.20;;;4.00;;
9799;SDS011;4939;52.00085300;4.17406100;2024-02-16T02:49:16;7.50;;;3.55;;
9799;SDS011;4939;52.00085300;4.17406100;2024-02-16T02:51:42;10.15;;;3.78;;
9799;SDS011;4939;52.00085300;4.17406100;2024-02-16T02:54:08;7.85;;;3.58;;
9799;SDS011;4939;52.00085300;4.17406100;2024-02-16T02:56:34;6.18;;;3.30;;
9799;SDS011;4939;52.00085300;4.17406100;2024-02-16T02:59:01;6.90;;;3.70;;
9799;SDS011;4939;52.00085300;4.17406100;2024-02-16T03:01:27;5.65;;;3.40;;
9799;SDS011;4939;52.00085300;4.17406100;2024-02-16T03:03:53;6.88;;;3.28;;
9799;SDS011;4939;52.00085300;4.17406100;2024-02-16T03:06:19;7.68;;;3.45;;
9799;SDS011;4939;52.00085300;4.17406100;2024-02-16T03:08:45;8.13;;;3.40;;
9799;SDS011;4939;52.00085300;4.17406100;2024-02-16T03:11:12;7.45;;;3.40;;
9799;SDS011;4939;52.00085300;4.17406100;2024-02-16T03:13:38;5.88;;;3.30;;
9799;SDS011;4939;52.00085300;4.17406100;2024-02-16T03:16:05;7.00;;;3.58;;
9799;SDS011;4939;52.00085300;4.17406100;2024-02-16T03:18:31;7.85;;;3.45;;
9799;SDS011;4939;52.00085300;4.17406100;2024-02-16T03:20:58;7.70;;;3.22;;
9799;SDS011;4939;52.00085300;4.17406100;2024-02-16T03:23:24;6.63;;;2.95;;
9799;SDS011;4939;52.00085300;4.17406100;2024-02-16T03:25:50;6.63;;;3.40;;
9799;SDS011;4939;52.00085300;4.17406100;2024-02-16T03:28:16;7.15;;;3.20;;
9799;SDS011;4939;52.00085300;4.17406100;2024-02-16T03:30:43;7.07;;;3.10;;
9799;SDS011;4939;52.00085300;4.17406100;2024-02-16T03:33:09;7.85;;;3.35;;
9799;SDS011;4939;52.00085300;4.17406100;2024-02-16T03:35:35;7.25;;;2.95;;
9799;SDS011;4939;52.00085300;4.17406100;2024-02-16T03:38:02;7.90;;;3.60;;
9799;SDS011;4939;52.00085300;4.17406100;2024-02-16T03:40:28;8.15;;;3.42;;
9799;SDS011;4939;52.00085300;4.17406100;2024-02-16T03:42:55;8.48;;;3.30;;
9799;SDS011;4939;52.00085300;4.17406100;2024-02-16T03:45:21;7.80;;;3.22;;
9799;SDS011;4939;52.00085300;4.17406100;2024-02-16T03:47:48;6.78;;;3.47;;
9799;SDS011;4939;52.00085300;4.17406100;2024-02-16T03:50:14;7.18;;;3.35;;
9799;SDS011;4939;52.00085300;4.17406100;2024-02-16T03:52:40;6.50;;;3.10;;
9799;SDS011;4939;52.00085300;4.17406100;2024-02-16T03:55:07;7.30;;;3.35;;
9799;SDS011;4939;52.00085300;4.17406100;2024-02-16T03:57:33;7.50;;;3.40;;
9799;SDS011;4939;52.00085300;4.17406100;2024-02-16T03:59:59;6.72;;;3.50;;
9799;SDS011;4939;52.00085300;4.17406100;2024-02-16T04:02:25;7.55;;;3.28;;
9799;SDS011;4939;52.00085300;4.17406100;2024-02-16T04:04:51;6.82;;;3.35;;
9799;SDS011;4939;52.00085300;4.17406100;2024-02-16T04:07:17;7.43;;;3.60;;
9799;SDS011;4939;52.00085300;4.17406100;2024-02-16T04:09:43;7.30;;;3.30;;
9799;SDS011;4939;52.00085300;4.17406100;2024-02-16T04:12:09;9.05;;;3.72;;
9799;SDS011;4939;52.00085300;4.17406100;2024-02-16T04:14:35;6.80;;;3.55;;
9799;SDS011;4939;52.00085300;4.17406100;2024-02-16T04:17:02;8.50;;;3.55;;
9799;SDS011;4939;52.00085300;4.17406100;2024-02-16T04:19:29;8.45;;;3.67;;
9799;SDS011;4939;52.00085300;4.17406100;2024-02-16T04:21:55;7.38;;;3.90;;
9799;SDS011;4939;52.00085300;4.17406100;2024-02-16T04:24:21;7.50;;;3.67;;
9799;SDS011;4939;52.00085300;4.17406100;2024-02-16T04:26:47;7.68;;;3.78;;
9799;SDS011;4939;52.00085300;4.17406100;2024-02-16T04:29:14;6.78;;;3.55;;
9799;SDS011;4939;52.00085300;4.17406100;2024-02-16T04:31:41;10.20;;;3.70;;
9799;SDS011;4939;52.00085300;4.17406100;2024-02-16T04:34:10;8.15;;;3.63;;
9799;SDS011;4939;52.00085300;4.17406100;2024-02-16T04:36:36;8.07;;;3.83;;
9799;SDS011;4939;52.00085300;4.17406100;2024-02-16T04:39:02;6.38;;;3.65;;
9799;SDS011;4939;52.00085300;4.17406100;2024-02-16T04:41:28;8.50;;;3.75;;
9799;SDS011;4939;52.00085300;4.17406100;2024-02-16T04:43:54;7.40;;;3.70;;
9799;SDS011;4939;52.00085300;4.17406100;2024-02-16T04:46:21;8.27;;;3.83;;
9799;SDS011;4939;52.00085300;4.17406100;2024-02-16T04:48:47;9.98;;;3.63;;
9799;SDS011;4939;52.00085300;4.17406100;2024-02-16T04:51:13;7.93;;;3.78;;
9799;SDS011;4939;52.00085300;4.17406100;2024-02-16T04:53:39;12.38;;;3.72;;
9799;SDS011;4939;52.00085300;4.17406100;2024-02-16T04:56:05;8.65;;;3.90;;
9799;SDS011;4939;52.00085300;4.17406100;2024-02-16T04:58:32;7.78;;;3.95;;
9799;SDS011;4939;52.00085300;4.17406100;2024-02-16T05:00:58;7.45;;;3.72;;
9799;SDS011;4939;52.00085300;4.17406100;2024-02-16T05:03:25;8.00;;;3.58;;
9799;SDS011;4939;52.00085300;4.17406100;2024-02-16T05:05:51;7.60;;;3.65;;
9799;SDS011;4939;52.00085300;4.17406100;2024-02-16T05:08:17;10.50;;;3.10;;
9799;SDS011;4939;52.00085300;4.17406100;2024-02-16T05:10:43;7.47;;;3.60;;
9799;SDS011;4939;52.00085300;4.17406100;2024-02-16T05:13:10;6.90;;;3.33;;
9799;SDS011;4939;52.00085300;4.17406100;2024-02-16T05:15:37;7.68;;;3.63;;
9799;SDS011;4939;52.00085300;4.17406100;2024-02-16T05:18:03;7.70;;;3.80;;
9799;SDS011;4939;52.00085300;4.17406100;2024-02-16T05:20:29;6.95;;;3.60;;
9799;SDS011;4939;52.00085300;4.17406100;2024-02-16T05:22:55;10.10;;;3.75;;
9799;SDS011;4939;52.00085300;4.17406100;2024-02-16T05:25:22;9.85;;;3.45;;
9799;SDS011;4939;52.00085300;4.17406100;2024-02-16T05:27:48;6.35;;;3.28;;
9799;SDS011;4939;52.00085300;4.17406100;2024-02-16T05:30:14;7.13;;;3.72;;
9799;SDS011;4939;52.00085300;4.17406100;2024-02-16T05:32:41;7.90;;;3.97;;
9799;SDS011;4939;52.00085300;4.17406100;2024-02-16T05:35:07;6.30;;;3.58;;
9799;SDS011;4939;52.00085300;4.17406100;2024-02-16T05:37:57;7.38;;;3.00;;
9799;SDS011;4939;52.00085300;4.17406100;2024-02-16T05:40:22;7.70;;;3.75;;
9799;SDS011;4939;52.00085300;4.17406100;2024-02-16T05:42:55;6.03;;;3.90;;
9799;SDS011;4939;52.00085300;4.17406100;2024-02-16T05:45:23;7.45;;;3.60;;
9799;SDS011;4939;52.00085300;4.17406100;2024-02-16T05:47:49;10.50;;;4.10;;
9799;SDS011;4939;52.00085300;4.17406100;2024-02-16T05:50:15;7.30;;;3.80;;
9799;SDS011;4939;52.00085300;4.17406100;2024-02-16T05:52:42;6.30;;;3.38;;
9799;SDS011;4939;52.00085300;4.17406100;2024-02-16T05:55:08;7.55;;;3.70;;
9799;SDS011;4939;52.00085300;4.17406100;2024-02-16T05:57:35;6.78;;;3.90;;
9799;SDS011;4939;52.00085300;4.17406100;2024-02-16T06:00:06;7.85;;;3.90;;
9799;SDS011;4939;52.00085300;4.17406100;2024-02-16T06:02:33;8.63;;;4.10;;
9799;SDS011;4939;52.00085300;4.17406100;2024-02-16T06:05:00;9.02;;;4.05;;
9799;SDS011;4939;52.00085300;4.17406100;2024-02-16T06:07:27;8.80;;;4.00;;
9799;SDS011;4939;52.00085300;4.17406100;2024-02-16T06:09:57;7.00;;;3.78;;
9799;SDS011;4939;52.00085300;4.17406100;2024-02-16T06:12:23;9.05;;;3.80;;
9799;SDS011;4939;52.00085300;4.17406100;2024-02-16T06:14:49;7.28;;;3.53;;
9799;SDS011;4939;52.00085300;4.17406100;2024-02-16T06:17:15;8.27;;;3.80;;
9799;SDS011;4939;52.00085300;4.17406100;2024-02-16T06:19:41;7.28;;;3.60;;
9799;SDS011;4939;52.00085300;4.17406100;2024-02-16T06:22:08;10.30;;;3.72;;
9799;SDS011;4939;52.00085300;4.17406100;2024-02-16T06:24:34;10.25;;;3.85;;
9799;SDS011;4939;52.00085300;4.17406100;2024-02-16T06:27:00;8.55;;;3.70;;
9799;SDS011;4939;52.00085300;4.17406100;2024-02-16T06:29:27;8.50;;;4.03;;
9799;SDS011;4939;52.00085300;4.17406100;2024-02-16T06:31:53;8.02;;;3.70;;
9799;SDS011;4939;52.00085300;4.17406100;2024-02-16T06:34:19;6.80;;;3.88;;
9799;SDS011;4939;52.00085300;4.17406100;2024-02-16T06:36:45;7.25;;;3.95;;
9799;SDS011;4939;52.00085300;4.17406100;2024-02-16T06:39:11;8.40;;;3.67;;
9799;SDS011;4939;52.00085300;4.17406100;2024-02-16T06:41:42;9.55;;;4.10;;
9799;SDS011;4939;52.00085300;4.17406100;2024-02-16T06:44:09;7.93;;;3.90;;
9799;SDS011;4939;52.00085300;4.17406100;2024-02-16T06:46:35;8.55;;;4.13;;
9799;SDS011;4939;52.00085300;4.17406100;2024-02-16T06:49:01;8.88;;;3.95;;
9799;SDS011;4939;52.00085300;4.17406100;2024-02-16T06:51:27;8.10;;;3.78;;
9799;SDS011;4939;52.00085300;4.17406100;2024-02-16T06:53:54;6.57;;;3.65;;
9799;SDS011;4939;52.00085300;4.17406100;2024-02-16T06:56:20;6.72;;;4.13;;
9799;SDS011;4939;52.00085300;4.17406100;2024-02-16T06:58:46;8.63;;;3.72;;
9799;SDS011;4939;52.00085300;4.17406100;2024-02-16T07:01:13;6.88;;;3.63;;
9799;SDS011;4939;52.00085300;4.17406100;2024-02-16T07:03:39;8.38;;;4.20;;
9799;SDS011;4939;52.00085300;4.17406100;2024-02-16T07:06:06;10.07;;;4.60;;
9799;SDS011;4939;52.00085300;4.17406100;2024-02-16T07:08:44;11.75;;;4.03;;
9799;SDS011;4939;52.00085300;4.17406100;2024-02-16T07:11:10;9.13;;;4.07;;
9799;SDS011;4939;52.00085300;4.17406100;2024-02-16T07:13:39;7.95;;;4.70;;
9799;SDS011;4939;52.00085300;4.17406100;2024-02-16T07:16:05;10.07;;;4.70;;
9799;SDS011;4939;52.00085300;4.17406100;2024-02-16T07:18:32;10.55;;;4.80;;
9799;SDS011;4939;52.00085300;4.17406100;2024-02-16T07:20:58;9.30;;;4.75;;
9799;SDS011;4939;52.00085300;4.17406100;2024-02-16T07:23:24;9.25;;;4.72;;
9799;SDS011;4939;52.00085300;4.17406100;2024-02-16T07:25:51;7.55;;;4.35;;
9799;SDS011;4939;52.00085300;4.17406100;2024-02-16T07:28:20;7.18;;;3.97;;
9799;SDS011;4939;52.00085300;4.17406100;2024-02-16T07:30:46;7.30;;;4.13;;
9799;SDS011;4939;52.00085300;4.17406100;2024-02-16T07:33:13;7.43;;;3.47;;
9799;SDS011;4939;52.00085300;4.17406100;2024-02-16T07:35:39;7.97;;;3.88;;
9799;SDS011;4939;52.00085300;4.17406100;2024-02-16T07:38:05;7.93;;;3.53;;
9799;SDS011;4939;52.00085300;4.17406100;2024-02-16T07:40:32;9.48;;;4.18;;
9799;SDS011;4939;52.00085300;4.17406100;2024-02-16T07:42:58;6.95;;;4.10;;
9799;SDS011;4939;52.00085300;4.17406100;2024-02-16T07:45:24;11.90;;;4.07;;
9799;SDS011;4939;52.00085300;4.17406100;2024-02-16T07:47:50;9.52;;;3.83;;
9799;SDS011;4939;52.00085300;4.17406100;2024-02-16T07:50:19;8.65;;;3.75;;
9799;SDS011;4939;52.00085300;4.17406100;2024-02-16T07:52:46;9.02;;;3.75;;
9799;SDS011;4939;52.00085300;4.17406100;2024-02-16T07:55:12;6.68;;;3.80;;
9799;SDS011;4939;52.00085300;4.17406100;2024-02-16T07:57:38;7.55;;;3.90;;
9799;SDS011;4939;52.00085300;4.17406100;2024-02-16T08:00:04;8.10;;;4.30;;
9799;SDS011;4939;52.00085300;4.17406100;2024-02-16T08:02:31;9.60;;;4.72;;
9799;SDS011;4939;52.00085300;4.17406100;2024-02-16T08:04:58;11.07;;;4.45;;
9799;SDS011;4939;52.00085300;4.17406100;2024-02-16T08:07:24;10.23;;;4.03;;
9799;SDS011;4939;52.00085300;4.17406100;2024-02-16T08:09:50;10.27;;;4.00;;
9799;SDS011;4939;52.00085300;4.17406100;2024-02-16T08:12:16;8.75;;;4.10;;
9799;SDS011;4939;52.00085300;4.17406100;2024-02-16T08:14:42;7.55;;;4.07;;
9799;SDS011;4939;52.00085300;4.17406100;2024-02-16T08:17:08;9.20;;;3.85;;
9799;SDS011;4939;52.00085300;4.17406100;2024-02-16T08:19:35;11.90;;;4.25;;
9799;SDS011;4939;52.00085300;4.17406100;2024-02-16T08:22:02;10.23;;;4.20;;
9799;SDS011;4939;52.00085300;4.17406100;2024-02-16T08:24:29;11.25;;;4.13;;
9799;SDS011;4939;52.00085300;4.17406100;2024-02-16T08:26:55;13.25;;;4.53;;
9799;SDS011;4939;52.00085300;4.17406100;2024-02-16T08:29:21;9.52;;;4.72;;
9799;SDS011;4939;52.00085300;4.17406100;2024-02-16T08:31:48;11.07;;;4.68;;
9799;SDS011;4939;52.00085300;4.17406100;2024-02-16T08:34:15;11.45;;;5.38;;
9799;SDS011;4939;52.00085300;4.17406100;2024-02-16T08:36:48;14.52;;;4.43;;
9799;SDS011;4939;52.00085300;4.17406100;2024-02-16T08:39:14;10.35;;;4.07;;
9799;SDS011;4939;52.00085300;4.17406100;2024-02-16T08:41:41;9.57;;;4.82;;
9799;SDS011;4939;52.00085300;4.17406100;2024-02-16T08:44:09;10.70;;;4.45;;
9799;SDS011;4939;52.00085300;4.17406100;2024-02-16T08:46:35;11.07;;;4.45;;
9799;SDS011;4939;52.00085300;4.17406100;2024-02-16T08:49:08;10.93;;;4.78;;
9799;SDS011;4939;52.00085300;4.17406100;2024-02-16T08:51:34;13.77;;;4.85;;
9799;SDS011;4939;52.00085300;4.17406100;2024-02-16T08:54:01;15.68;;;5.35;;
9799;SDS011;4939;52.00085300;4.17406100;2024-02-16T08:56:27;13.60;;;5.78;;
9799;SDS011;4939;52.00085300;4.17406100;2024-02-16T08:58:53;14.68;;;6.18;;
9799;SDS011;4939;52.00085300;4.17406100;2024-02-16T09:01:29;16.20;;;6.72;;
9799;SDS011;4939;52.00085300;4.17406100;2024-02-16T09:04:04;18.45;;;7.28;;
9799;SDS011;4939;52.00085300;4.17406100;2024-02-16T09:06:30;15.32;;;6.88;;
9799;SDS011;4939;52.00085300;4.17406100;2024-02-16T09:08:56;17.23;;;6.28;;
9799;SDS011;4939;52.00085300;4.17406100;2024-02-16T09:11:23;17.00;;;6.30;;
9799;SDS011;4939;52.00085300;4.17406100;2024-02-16T09:13:49;17.13;;;7.00;;
9799;SDS011;4939;52.00085300;4.17406100;2024-02-16T09:16:15;15.93;;;7.22;;
9799;SDS011;4939;52.00085300;4.17406100;2024-02-16T09:18:41;17.38;;;6.60;;
9799;SDS011;4939;52.00085300;4.17406100;2024-02-16T09:21:07;23.10;;;8.13;;
9799;SDS011;4939;52.00085300;4.17406100;2024-02-16T09:23:34;18.15;;;7.32;;
9799;SDS011;4939;52.00085300;4.17406100;2024-02-16T09:26:01;30.02;;;8.20;;
9799;SDS011;4939;52.00085300;4.17406100;2024-02-16T09:28:27;25.38;;;8.20;;
9799;SDS011;4939;52.00085300;4.17406100;2024-02-16T09:30:56;26.63;;;8.23;;
9799;SDS011;4939;52.00085300;4.17406100;2024-02-16T09:33:22;19.27;;;7.15;;
9799;SDS011;4939;52.00085300;4.17406100;2024-02-16T09:35:49;24.50;;;8.30;;
9799;SDS011;4939;52.00085300;4.17406100;2024-02-16T09:38:15;26.05;;;8.13;;
9799;SDS011;4939;52.00085300;4.17406100;2024-02-16T09:40:41;23.40;;;7.85;;
9799;SDS011;4939;52.00085300;4.17406100;2024-02-16T09:43:07;20.25;;;7.07;;
9799;SDS011;4939;52.00085300;4.17406100;2024-02-16T09:45:33;19.95;;;7.63;;
9799;SDS011;4939;52.00085300;4.17406100;2024-02-16T09:47:59;21.98;;;6.78;;
9799;SDS011;4939;52.00085300;4.17406100;2024-02-16T09:50:27;18.85;;;7.07;;
9799;SDS011;4939;52.00085300;4.17406100;2024-02-16T09:52:54;19.08;;;6.60;;
9799;SDS011;4939;52.00085300;4.17406100;2024-02-16T09:55:21;18.58;;;6.50;;
9799;SDS011;4939;52.00085300;4.17406100;2024-02-16T09:57:57;19.13;;;6.45;;
9799;SDS011;4939;52.00085300;4.17406100;2024-02-16T10:00:24;19.55;;;6.53;;
9799;SDS011;4939;52.00085300;4.17406100;2024-02-16T10:02:50;16.95;;;6.53;;
9799;SDS011;4939;52.00085300;4.17406100;2024-02-16T10:05:19;19.70;;;6.18;;
9799;SDS011;4939;52.00085300;4.17406100;2024-02-16T10:07:46;19.42;;;6.28;;
9799;SDS011;4939;52.00085300;4.17406100;2024-02-16T10:10:25;15.75;;;5.68;;
9799;SDS011;4939;52.00085300;4.17406100;2024-02-16T10:13:03;16.20;;;5.97;;
9799;SDS011;4939;52.00085300;4.17406100;2024-02-16T10:15:30;17.10;;;6.57;;
9799;SDS011;4939;52.00085300;4.17406100;2024-02-16T10:17:57;18.98;;;6.55;;
9799;SDS011;4939;52.00085300;4.17406100;2024-02-16T10:20:24;22.98;;;6.95;;
9799;SDS011;4939;52.00085300;4.17406100;2024-02-16T10:22:50;20.45;;;6.22;;
9799;SDS011;4939;52.00085300;4.17406100;2024-02-16T10:25:17;16.17;;;6.55;;
9799;SDS011;4939;52.00085300;4.17406100;2024-02-16T10:27:45;17.73;;;6.53;;
9799;SDS011;4939;52.00085300;4.17406100;2024-02-16T10:30:12;21.88;;;6.90;;
9799;SDS011;4939;52.00085300;4.17406100;2024-02-16T10:32:38;19.75;;;7.15;;
9799;SDS011;4939;52.00085300;4.17406100;2024-02-16T10:35:05;20.70;;;6.00;;
9799;SDS011;4939;52.00085300;4.17406100;2024-02-16T10:37:33;14.40;;;5.70;;
9799;SDS011;4939;52.00085300;4.17406100;2024-02-16T10:40:00;14.02;;;6.03;;
9799;SDS011;4939;52.00085300;4.17406100;2024-02-16T10:42:29;19.92;;;6.30;;
9799;SDS011;4939;52.00085300;4.17406100;2024-02-16T10:44:59;20.95;;;6.25;;
9799;SDS011;4939;52.00085300;4.17406100;2024-02-16T10:47:26;17.15;;;6.68;;
9799;SDS011;4939;52.00085300;4.17406100;2024-02-16T10:49:53;19.65;;;6.28;;
9799;SDS011;4939;52.00085300;4.17406100;2024-02-16T10:52:19;19.25;;;5.53;;
9799;SDS011;4939;52.00085300;4.17406100;2024-02-16T10:54:45;21.10;;;6.55;;
9799;SDS011;4939;52.00085300;4.17406100;2024-02-16T10:57:12;17.27;;;5.80;;
9799;SDS011;4939;52.00085300;4.17406100;2024-02-16T10:59:41;18.63;;;6.22;;
9799;SDS011;4939;52.00085300;4.17406100;2024-02-16T11:02:09;22.85;;;5.53;;
9799;SDS011;4939;52.00085300;4.17406100;2024-02-16T11:04:36;13.32;;;5.32;;
9799;SDS011;4939;52.00085300;4.17406100;2024-02-16T11:07:14;15.52;;;5.43;;
9799;SDS011;4939;52.00085300;4.17406100;2024-02-16T11:09:41;16.83;;;5.05;;
9799;SDS011;4939;52.00085300;4.17406100;2024-02-16T11:12:07;14.70;;;5.32;;
9799;SDS011;4939;52.00085300;4.17406100;2024-02-16T11:14:34;13.90;;;5.68;;
9799;SDS011;4939;52.00085300;4.17406100;2024-02-16T11:22:05;14.52;;;4.35;;
9799;SDS011;4939;52.00085300;4.17406100;2024-02-16T11:24:34;13.57;;;4.35;;
9799;SDS011;4939;52.00085300;4.17406100;2024-02-16T11:27:01;15.90;;;5.07;;
9799;SDS011;4939;52.00085300;4.17406100;2024-02-16T11:29:29;11.38;;;4.45;;
9799;SDS011;4939;52.00085300;4.17406100;2024-02-16T11:31:57;12.57;;;4.97;;
9799;SDS011;4939;52.00085300;4.17406100;2024-02-16T11:34:24;14.20;;;4.88;;
9799;SDS011;4939;52.00085300;4.17406100;2024-02-16T11:36:57;15.52;;;4.82;;
9799;SDS011;4939;52.00085300;4.17406100;2024-02-16T11:39:24;14.07;;;4.43;;
9799;SDS011;4939;52.00085300;4.17406100;2024-02-16T11:42:01;13.38;;;4.65;;
9799;SDS011;4939;52.00085300;4.17406100;2024-02-16T11:44:31;15.55;;;4.28;;
9799;SDS011;4939;52.00085300;4.17406100;2024-02-16T11:46:58;12.20;;;4.60;;
9799;SDS011;4939;52.00085300;4.17406100;2024-02-16T11:49:24;14.73;;;4.70;;
9799;SDS011;4939;52.00085300;4.17406100;2024-02-16T11:51:50;13.90;;;4.18;;
9799;SDS011;4939;52.00085300;4.17406100;2024-02-16T11:54:17;11.10;;;4.00;;
9799;SDS011;4939;52.00085300;4.17406100;2024-02-16T11:56:46;12.15;;;4.18;;
9799;SDS011;4939;52.00085300;4.17406100;2024-02-16T11:59:16;11.98;;;3.60;;
9799;SDS011;4939;52.00085300;4.17406100;2024-02-16T12:01:51;11.52;;;3.35;;
9799;SDS011;4939;52.00085300;4.17406100;2024-02-16T12:04:23;11.90;;;3.70;;
9799;SDS011;4939;52.00085300;4.17406100;2024-02-16T12:06:57;13.18;;;3.58;;
9799;SDS011;4939;52.00085300;4.17406100;2024-02-16T12:09:23;12.52;;;3.47;;
9799;SDS011;4939;52.00085300;4.17406100;2024-02-16T12:11:50;10.07;;;3.25;;
9799;SDS011;4939;52.00085300;4.17406100;2024-02-16T12:14:17;9.60;;;3.08;;
9799;SDS011;4939;52.00085300;4.17406100;2024-02-16T12:16:47;9.90;;;3.45;;
9799;SDS011;4939;52.00085300;4.17406100;2024-02-16T12:19:14;9.27;;;3.10;;
9799;SDS011;4939;52.00085300;4.17406100;2024-02-16T12:21:41;13.32;;;3.42;;
9799;SDS011;4939;52.00085300;4.17406100;2024-02-16T12:24:07;11.45;;;3.30;;
9799;SDS011;4939;52.00085300;4.17406100;2024-02-16T12:26:33;11.38;;;3.80;;
9799;SDS011;4939;52.00085300;4.17406100;2024-02-16T12:28:59;6.13;;;2.50;;
9799;SDS011;4939;52.00085300;4.17406100;2024-02-16T12:31:25;8.73;;;2.75;;
9799;SDS011;4939;52.00085300;4.17406100;2024-02-16T12:33:51;7.20;;;3.00;;
9799;SDS011;4939;52.00085300;4.17406100;2024-02-16T12:36:17;6.90;;;2.13;;
9799;SDS011;4939;52.00085300;4.17406100;2024-02-16T12:38:44;6.93;;;2.45;;
9799;SDS011;4939;52.00085300;4.17406100;2024-02-16T12:41:10;6.20;;;2.90;;
9799;SDS011;4939;52.00085300;4.17406100;2024-02-16T12:43:36;5.82;;;3.42;;
9799;SDS011;4939;52.00085300;4.17406100;2024-02-16T12:46:02;6.20;;;2.78;;
9799;SDS011;4939;52.00085300;4.17406100;2024-02-16T12:48:29;5.38;;;2.90;;
9799;SDS011;4939;52.00085300;4.17406100;2024-02-16T12:50:55;4.32;;;1.95;;
9799;SDS011;4939;52.00085300;4.17406100;2024-02-16T12:53:23;7.60;;;2.25;;
9799;SDS011;4939;52.00085300;4.17406100;2024-02-16T12:55:55;10.43;;;2.50;;
9799;SDS011;4939;52.00085300;4.17406100;2024-02-16T12:58:21;7.20;;;2.58;;
9799;SDS011;4939;52.00085300;4.17406100;2024-02-16T13:00:47;8.15;;;2.72;;
9799;SDS011;4939;52.00085300;4.17406100;2024-02-16T13:03:13;6.90;;;2.78;;
9799;SDS011;4939;52.00085300;4.17406100;2024-02-16T13:05:39;7.03;;;2.75;;
9799;SDS011;4939;52.00085300;4.17406100;2024-02-16T13:08:08;10.15;;;3.85;;
9799;SDS011;4939;52.00085300;4.17406100;2024-02-16T13:10:34;9.10;;;3.15;;